Time;durP1;ratioP1;P1;durP2;ratioP2;P2;SDS_P1;SDS_P2;PMS_P1;PMS_P2;Temp;Humidity;BMP_temperature;BMP_pressure;BME280_temperature;BME280_humidity;BME280_pressure;Samples;Min_cycle;Max_cycle;Signal;HPM_P1;HPM_P2
2021/09/09 00:01:34;;;;;;;;;20.25;18.25;;;;;23.51;71.13;100911.72;4910648;28;45549;-79
2021/09/09 00:04:00;;;;;;;;;20.25;19.25;;;;;23.57;70.66;100921.09;4913768;28;45430;-78
2021/09/09 00:06:26;;;;;;;;;18.25;18.00;;;;;23.63;70.58;100925.91;4920002;28;47954;-80
2021/09/09 00:08:51;;;;;;;;;20.25;18.25;;;;;23.60;70.71;100907.41;4921395;28;45939;-79
2021/09/09 00:11:17;;;;;;;;;26.00;23.00;;;;;23.68;70.96;100914.81;4915042;28;46692;-79
2021/09/09 00:13:43;;;;;;;;;22.25;22.25;;;;;23.68;71.79;100912.13;4909759;28;45475;-79
2021/09/09 00:16:08;;;;;;;;;22.25;21.00;;;;;23.70;71.51;100899.41;4919014;28;45325;-79
2021/09/09 00:18:34;;;;;;;;;22.50;19.25;;;;;23.73;70.58;100904.50;4903432;29;45360;-82
2021/09/09 00:21:00;;;;;;;;;22.00;20.00;;;;;23.73;70.30;100899.13;4917326;28;45355;-74
2021/09/09 00:23:26;;;;;;;;;19.00;18.50;;;;;23.71;70.67;100895.75;4912670;28;45454;-76
2021/09/09 00:25:51;;;;;;;;;21.75;19.50;;;;;23.73;71.25;100891.09;4919561;28;46135;-76
2021/09/09 00:28:17;;;;;;;;;23.50;18.25;;;;;23.78;71.70;100891.53;4922314;28;45319;-75
2021/09/09 00:30:42;;;;;;;;;18.50;17.50;;;;;23.78;71.01;100891.53;4917506;28;45426;-76
2021/09/09 00:33:08;;;;;;;;;20.00;18.00;;;;;23.78;70.55;100888.03;4915921;28;45461;-76
2021/09/09 00:35:37;;;;;;;;;19.00;18.75;;;;;23.79;70.98;100882.50;4903405;29;45296;-76
2021/09/09 00:38:02;;;;;;;;;21.75;20.25;;;;;23.79;70.93;100884.34;4903130;29;45221;-76
2021/09/09 00:40:29;;;;;;;;;16.50;15.75;;;;;23.79;71.12;100881.66;4886173;29;45287;-77
2021/09/09 00:42:54;;;;;;;;;17.00;15.75;;;;;23.77;70.27;100872.91;4902967;29;45372;-80
2021/09/09 00:45:20;;;;;;;;;23.25;17.50;;;;;23.74;70.30;100878.53;4914906;28;46599;-80
2021/09/09 00:47:45;;;;;;;;;16.50;15.25;;;;;23.74;70.31;100879.38;4903251;29;45325;-76
2021/09/09 00:50:11;;;;;;;;;14.50;14.50;;;;;23.74;70.30;100884.75;4909331;28;45298;-76
2021/09/09 00:52:37;;;;;;;;;15.25;14.75;;;;;23.74;71.33;100883.88;4919938;28;45326;-77
2021/09/09 00:55:03;;;;;;;;;14.75;14.75;;;;;23.71;70.42;100879.63;4911810;28;45659;-76
2021/09/09 00:57:29;;;;;;;;;15.00;15.00;;;;;23.69;70.11;100893.19;4902776;28;45565;-76
2021/09/09 00:59:55;;;;;;;;;16.50;13.25;;;;;23.68;70.03;100890.66;4901981;29;45336;-76
2021/09/09 01:02:20;;;;;;;;;13.75;11.50;;;;;23.68;70.45;100894.16;4911135;28;45747;-76
2021/09/09 01:04:46;;;;;;;;;15.25;14.00;;;;;23.69;70.69;100895.03;4904816;28;47257;-76
2021/09/09 01:07:11;;;;;;;;;17.00;15.25;;;;;23.66;71.10;100904.19;4904035;28;45310;-77
2021/09/09 01:09:36;;;;;;;;;15.25;13.75;;;;;23.65;71.01;100901.66;4903017;29;45234;-76
2021/09/09 01:12:03;;;;;;;;;16.00;16.00;;;;;23.62;70.84;100907.28;4902477;29;45213;-74
2021/09/09 01:14:29;;;;;;;;;14.75;14.75;;;;;23.58;70.25;100899.50;4903027;28;46714;-80
2021/09/09 01:16:54;;;;;;;;;15.75;15.00;;;;;23.59;70.33;100901.19;4916244;28;45318;-79
2021/09/09 01:19:20;;;;;;;;;14.50;13.00;;;;;23.56;70.80;100896.09;4906931;28;45267;-80
2021/09/09 01:21:45;;;;;;;;;15.00;13.50;;;;;23.52;70.88;100883.94;4924527;28;45578;-76
2021/09/09 01:24:12;;;;;;;;;15.25;13.25;;;;;23.47;72.07;100878.09;4909447;28;45287;-76
2021/09/09 01:27:11;;;;;;;;;14.25;13.00;;;;;23.40;71.63;100875.09;4924726;28;45470;-77
2021/09/09 01:29:40;;;;;;;;;18.50;15.00;;;;;23.30;71.08;100877.72;4893056;28;45286;-76
2021/09/09 01:32:08;;;;;;;;;18.25;16.25;;;;;23.31;71.17;100884.75;4915701;28;46560;-73
2021/09/09 01:34:34;;;;;;;;;17.25;15.75;;;;;23.30;72.15;100892.94;4917638;28;45291;-77
2021/09/09 01:37:00;;;;;;;;;13.50;12.75;;;;;23.21;72.10;100890.06;4925009;28;45292;-74
2021/09/09 01:39:26;;;;;;;;;18.75;16.00;;;;;23.15;71.41;100891.44;4910816;28;45226;-74
2021/09/09 01:41:53;;;;;;;;;18.25;18.00;;;;;23.14;72.19;100904.97;4919784;28;45706;-73
2021/09/09 01:44:19;;;;;;;;;19.25;14.25;;;;;23.13;72.00;100912.19;4916553;28;46500;-75
2021/09/09 01:46:45;;;;;;;;;19.00;15.75;;;;;23.14;71.25;100918.38;4907047;28;45306;-74
2021/09/09 01:49:11;;;;;;;;;14.50;14.00;;;;;23.16;70.46;100919.94;4924678;28;45257;-80
2021/09/09 01:51:36;;;;;;;;;14.50;14.25;;;;;23.19;70.72;100912.66;4923303;28;46005;-80
2021/09/09 01:54:02;;;;;;;;;13.75;13.75;;;;;23.22;71.09;100921.25;4924843;28;46722;-78
2021/09/09 01:56:29;;;;;;;;;16.00;14.75;;;;;23.22;72.04;100913.22;4922625;28;45573;-79
2021/09/09 01:58:54;;;;;;;;;18.50;17.50;;;;;23.23;72.23;100914.06;4923356;28;45313;-77
2021/09/09 02:01:23;;;;;;;;;15.25;14.25;;;;;23.23;71.97;100914.94;4917382;28;46027;-77
2021/09/09 02:03:49;;;;;;;;;13.75;13.00;;;;;23.19;72.28;100921.50;4919292;28;45509;-77
2021/09/09 02:06:14;;;;;;;;;17.00;15.75;;;;;23.19;72.31;100928.72;4922187;28;45992;-77
2021/09/09 02:08:40;;;;;;;;;17.25;16.00;;;;;23.11;72.37;100916.78;4924753;28;45303;-77
2021/09/09 02:11:06;;;;;;;;;20.00;15.50;;;;;23.07;72.67;100918.03;4920600;28;45451;-76
2021/09/09 02:13:31;;;;;;;;;15.50;14.75;;;;;23.05;72.02;100920.00;4924200;28;45584;-77
2021/09/09 02:15:57;;;;;;;;;14.25;12.00;;;;;23.07;71.15;100927.91;4924248;28;45423;-77
2021/09/09 02:18:22;;;;;;;;;17.75;14.50;;;;;23.10;72.06;100931.19;4911931;28;45308;-77
2021/09/09 02:20:47;;;;;;;;;18.00;15.75;;;;;23.14;71.45;100932.63;4915383;28;45426;-77
2021/09/09 02:23:13;;;;;;;;;19.50;18.00;;;;;23.15;72.56;100928.97;4905162;29;45624;-77
2021/09/09 02:25:38;;;;;;;;;14.50;13.50;;;;;23.17;70.77;100926.16;4905121;29;45459;-77
2021/09/09 02:28:05;;;;;;;;;15.25;14.75;;;;;23.22;71.80;100923.09;4904557;29;45252;-77
2021/09/09 02:30:30;;;;;;;;;19.50;17.25;;;;;23.27;72.05;100926.22;4905207;29;45459;-77
2021/09/09 02:32:56;;;;;;;;;18.75;17.75;;;;;23.27;72.12;100923.53;4916224;28;45660;-77
2021/09/09 02:35:21;;;;;;;;;22.75;16.75;;;;;23.27;71.73;100915.50;4922429;28;45260;-77
2021/09/09 02:37:46;;;;;;;;;14.00;14.00;;;;;23.29;70.93;100912.69;4906911;28;45228;-77
2021/09/09 02:40:12;;;;;;;;;12.50;12.50;;;;;23.31;70.62;100916.94;4911961;28;45509;-77
2021/09/09 02:42:39;;;;;;;;;19.00;17.75;;;;;23.34;70.41;100921.19;4915687;28;45435;-78
2021/09/09 02:45:04;;;;;;;;;14.75;14.25;;;;;23.36;70.32;100917.41;4924017;28;45347;-77
2021/09/09 02:47:30;;;;;;;;;17.50;16.00;;;;;23.38;70.94;100917.28;4910610;28;45340;-77
2021/09/09 02:49:55;;;;;;;;;19.75;19.75;;;;;23.39;71.04;100916.28;4904808;28;45555;-77
2021/09/09 02:52:20;;;;;;;;;18.00;16.00;;;;;23.41;71.89;100924.22;4916949;28;46196;-77
2021/09/09 02:54:46;;;;;;;;;22.50;20.00;;;;;23.39;71.25;100924.34;4904598;29;45455;-77
2021/09/09 02:57:11;;;;;;;;;15.25;14.00;;;;;23.42;70.47;100928.59;4904725;29;45355;-77
2021/09/09 02:59:36;;;;;;;;;19.00;15.00;;;;;23.40;70.21;100923.38;4904757;29;45442;-77
2021/09/09 03:02:03;;;;;;;;;19.50;16.00;;;;;23.42;70.20;100928.59;4908337;28;46545;-80
2021/09/09 03:04:29;;;;;;;;;16.75;14.50;;;;;23.42;70.08;100920.53;4923694;28;45553;-80
2021/09/09 03:06:54;;;;;;;;;18.00;15.50;;;;;23.45;71.53;100922.97;4923745;28;45279;-78
2021/09/09 03:09:19;;;;;;;;;20.25;17.50;;;;;23.43;71.22;100909.69;4922911;28;45465;-74
2021/09/09 03:11:45;;;;;;;;;22.50;18.75;;;;;23.42;72.00;100916.03;4923171;28;45280;-77
2021/09/09 03:14:10;;;;;;;;;18.50;15.75;;;;;23.41;71.60;100916.19;4920380;28;45237;-77
2021/09/09 03:16:36;;;;;;;;;18.25;16.50;;;;;23.37;71.71;100905.69;4914343;28;45767;-77
2021/09/09 03:19:01;;;;;;;;;17.75;17.75;;;;;23.37;71.17;100903.03;4923238;28;45482;-76
2021/09/09 03:21:26;;;;;;;;;16.25;16.25;;;;;23.35;71.48;100901.44;4914488;28;46224;-76
2021/09/09 03:23:52;;;;;;;;;20.25;20.00;;;;;23.36;71.19;100909.34;4914357;28;45268;-76
2021/09/09 03:26:17;;;;;;;;;23.25;20.75;;;;;23.34;71.03;100897.91;4923134;28;45298;-76
2021/09/09 03:28:43;;;;;;;;;28.25;23.75;;;;;23.34;71.39;100903.28;4923379;28;45226;-75
2021/09/09 03:31:08;;;;;;;;;28.50;24.25;;;;;23.32;71.73;100894.50;4923249;28;45831;-75
2021/09/09 03:33:33;;;;;;;;;26.25;22.50;;;;;23.27;72.06;100902.09;4905101;28;45308;-75
2021/09/09 03:35:59;;;;;;;;;20.50;20.00;;;;;23.24;71.97;100903.22;4904497;29;45254;-75
2021/09/09 03:38:24;;;;;;;;;26.75;20.50;;;;;23.19;72.54;100896.56;4903959;28;45513;-75
2021/09/09 03:40:49;;;;;;;;;26.75;23.75;;;;;23.18;72.54;100900.22;4916810;28;46163;-76
2021/09/09 03:43:15;;;;;;;;;20.50;16.50;;;;;23.15;71.67;100894.13;4919671;28;45355;-76
2021/09/09 03:45:40;;;;;;;;;17.00;15.00;;;;;23.18;71.04;100884.97;4922888;28;45694;-76
2021/09/09 03:48:06;;;;;;;;;26.50;25.75;;;;;23.19;71.69;100883.16;4922936;28;45521;-76
2021/09/09 03:50:31;;;;;;;;;25.25;23.25;;;;;23.22;70.98;100888.22;4922868;28;46685;-76
2021/09/09 03:52:56;;;;;;;;;23.50;18.75;;;;;23.22;70.70;100883.72;4907715;28;45329;-76
2021/09/09 03:55:22;;;;;;;;;22.25;20.25;;;;;23.27;70.69;100894.91;4903883;29;45317;-76
2021/09/09 03:57:48;;;;;;;;;22.50;20.00;;;;;23.29;71.17;100897.44;4903532;29;45562;-76
2021/09/09 04:00:15;;;;;;;;;19.00;16.25;;;;;23.28;70.60;100895.78;4910280;28;45465;-75
2021/09/09 04:02:40;;;;;;;;;26.75;25.50;;;;;23.28;71.47;100895.78;4909595;28;45582;-76
2021/09/09 04:05:07;;;;;;;;;25.75;23.50;;;;;23.27;71.78;100899.41;4904171;29;45197;-75
2021/09/09 04:07:32;;;;;;;;;18.25;18.25;;;;;23.27;71.48;100904.78;4905070;28;45249;-76
2021/09/09 04:09:57;;;;;;;;;23.00;21.50;;;;;23.25;72.50;100896.03;4916503;28;45379;-76
2021/09/09 04:12:23;;;;;;;;;24.50;23.00;;;;;23.17;72.47;100894.00;4909706;28;45217;-77
2021/09/09 04:14:48;;;;;;;;;26.00;22.00;;;;;23.14;72.78;100894.25;4903739;29;46020;-77
2021/09/09 04:17:14;;;;;;;;;21.50;19.75;;;;;23.10;72.38;100898.16;4903545;29;45435;-77
2021/09/09 04:19:39;;;;;;;;;25.25;23.00;;;;;23.02;72.69;100880.91;4906741;28;45362;-77
2021/09/09 04:22:08;;;;;;;;;18.25;17.25;;;;;23.02;71.67;100888.09;4922677;28;45216;-77
2021/09/09 04:24:35;;;;;;;;;26.00;22.25;;;;;23.01;72.78;100883.72;4922506;28;45350;-77
2021/09/09 04:27:00;;;;;;;;;21.75;20.25;;;;;22.99;72.67;100877.66;4922107;28;45232;-77
2021/09/09 04:29:26;;;;;;;;;26.75;24.25;;;;;23.00;72.33;100879.34;4922561;28;46469;-76
2021/09/09 04:31:52;;;;;;;;;24.75;21.50;;;;;23.02;72.84;100872.88;4916275;28;45828;-76
2021/09/09 04:34:17;;;;;;;;;26.50;25.50;;;;;23.03;72.37;100865.69;4908404;28;45328;-74
2021/09/09 04:36:42;;;;;;;;;19.50;18.50;;;;;22.99;72.02;100859.72;4907116;28;45668;-76
2021/09/09 04:39:08;;;;;;;;;33.50;29.50;;;;;23.04;72.54;100868.22;4907165;28;47166;-80
2021/09/09 04:41:33;;;;;;;;;21.50;21.25;;;;;23.07;72.43;100871.63;4917668;28;45226;-79
2021/09/09 04:43:59;;;;;;;;;29.00;25.75;;;;;23.08;71.78;100866.16;4922493;28;45300;-79
2021/09/09 04:46:24;;;;;;;;;24.75;22.75;;;;;23.11;72.12;100859.69;4920697;28;46346;-80
2021/09/09 04:48:49;;;;;;;;;20.25;19.75;;;;;23.10;72.09;100855.28;4919379;28;48080;-79
2021/09/09 04:51:15;;;;;;;;;23.50;20.25;;;;;23.10;70.80;100866.84;4921308;28;45378;-83
2021/09/09 04:53:40;;;;;;;;;22.50;19.50;;;;;23.12;70.71;100862.22;4921759;28;45299;-78
2021/09/09 04:56:06;;;;;;;;;17.75;17.50;;;;;23.17;71.00;100867.19;4915920;28;45513;-78
2021/09/09 04:58:31;;;;;;;;;27.25;25.75;;;;;23.17;72.09;100867.19;4903001;29;46588;-78
2021/09/09 05:00:56;;;;;;;;;28.50;25.75;;;;;23.16;71.99;100866.31;4901528;29;46425;-78
2021/09/09 05:03:22;;;;;;;;;21.00;19.25;;;;;23.10;71.14;100869.53;4903125;29;45276;-77
2021/09/09 05:05:47;;;;;;;;;26.50;21.75;;;;;23.09;70.67;100869.69;4902704;29;45596;-77
2021/09/09 05:08:13;;;;;;;;;23.50;21.00;;;;;23.08;70.72;100863.47;4917274;28;46578;-77
2021/09/09 05:10:38;;;;;;;;;28.50;25.25;;;;;23.11;71.10;100863.19;4915612;28;45329;-77
2021/09/09 05:13:04;;;;;;;;;22.50;20.50;;;;;23.13;70.73;100863.06;4902825;29;45431;-77
2021/09/09 05:15:29;;;;;;;;;24.50;23.25;;;;;23.11;70.44;100867.72;4902717;29;45399;-77
2021/09/09 05:17:55;;;;;;;;;24.25;23.75;;;;;23.18;70.65;100873.41;4902846;29;45456;-77
2021/09/09 05:20:20;;;;;;;;;35.75;30.25;;;;;23.21;71.46;100875.81;4909449;28;45649;-76
2021/09/09 05:22:47;;;;;;;;;25.50;24.50;;;;;23.19;70.84;100878.63;4921996;28;45205;-76
2021/09/09 05:25:12;;;;;;;;;23.00;23.00;;;;;23.16;70.61;100877.03;4921306;28;45277;-76
2021/09/09 05:27:38;;;;;;;;;32.00;23.25;;;;;23.20;70.36;100882.16;4904095;28;46133;-76
2021/09/09 05:30:03;;;;;;;;;35.50;29.75;;;;;23.18;71.03;100876.06;4907635;28;45434;-76
2021/09/09 05:32:29;;;;;;;;;30.25;28.00;;;;;23.18;71.05;100881.44;4915652;28;45475;-76
2021/09/09 05:34:54;;;;;;;;;37.25;30.25;;;;;23.16;71.67;100882.41;4916463;28;45467;-76
2021/09/09 05:37:20;;;;;;;;;31.75;26.25;;;;;23.10;71.23;100888.31;4910992;28;45583;-76
2021/09/09 05:39:45;;;;;;;;;32.25;29.50;;;;;23.08;70.62;100889.41;4917999;28;45485;-79
2021/09/09 05:42:10;;;;;;;;;27.25;24.50;;;;;23.13;70.30;100898.78;4915887;28;45492;-74
2021/09/09 05:44:36;;;;;;;;;32.75;30.25;;;;;23.16;70.28;100897.66;4905392;28;45436;-75
2021/09/09 05:47:01;;;;;;;;;34.25;32.00;;;;;23.17;71.16;100902.03;4918564;28;45468;-75
2021/09/09 05:49:27;;;;;;;;;31.50;29.50;;;;;23.18;71.46;100906.44;4918473;28;45341;-74
2021/09/09 05:51:52;;;;;;;;;29.00;28.00;;;;;23.18;70.25;100911.78;4898763;28;45398;-74
2021/09/09 05:54:17;;;;;;;;;36.25;32.50;;;;;23.22;70.72;100917.72;4915486;28;45569;-74
2021/09/09 05:56:43;;;;;;;;;42.50;32.25;;;;;23.22;70.37;100925.75;4918481;28;46052;-74
2021/09/09 05:59:08;;;;;;;;;33.00;30.50;;;;;23.18;70.54;100924.34;4919182;28;45455;-74
2021/09/09 06:01:35;;;;;;;;;32.50;29.50;;;;;23.14;70.54;100919.22;4899701;28;45246;-74
2021/09/09 06:04:01;;;;;;;;;34.50;30.25;;;;;23.12;71.04;100917.66;4900785;28;46266;-74
2021/09/09 06:06:26;;;;;;;;;39.00;34.00;;;;;23.11;71.34;100924.84;4923062;28;45545;-74
2021/09/09 06:08:52;;;;;;;;;40.25;34.50;;;;;23.08;71.05;100926.94;4918226;28;45545;-74
2021/09/09 06:11:17;;;;;;;;;28.75;24.50;;;;;23.03;70.90;100919.28;4917749;28;45204;-74
2021/09/09 06:13:43;;;;;;;;;37.75;32.50;;;;;23.00;72.02;100930.25;4923214;28;45312;-74
2021/09/09 06:16:09;;;;;;;;;33.00;29.00;;;;;22.95;70.93;100933.31;4924181;28;45446;-74
2021/09/09 06:18:35;;;;;;;;;32.25;29.00;;;;;22.96;70.91;100934.19;4915311;28;45894;-74
2021/09/09 06:21:01;;;;;;;;;40.00;31.00;;;;;22.98;72.46;100940.25;4901650;28;45400;-74
2021/09/09 06:23:26;;;;;;;;;33.50;28.50;;;;;23.00;71.38;100941.84;4924045;28;45583;-74
2021/09/09 06:25:52;;;;;;;;;35.50;32.50;;;;;23.00;70.92;100938.28;4922797;28;46170;-74
2021/09/09 06:28:17;;;;;;;;;28.00;27.75;;;;;23.00;70.98;100936.47;4923573;28;45363;-74
2021/09/09 06:30:43;;;;;;;;;42.25;34.75;;;;;23.04;71.47;100942.41;4915750;28;45247;-75
2021/09/09 06:33:08;;;;;;;;;30.75;28.25;;;;;23.03;70.79;100936.22;4904906;29;45404;-77
2021/09/09 06:35:34;;;;;;;;;30.25;23.50;;;;;23.07;70.94;100952.88;4905096;28;46045;-77
2021/09/09 06:37:59;;;;;;;;;33.25;31.00;;;;;23.02;71.22;100939.88;4904766;28;45426;-77
2021/09/09 06:40:24;;;;;;;;;35.50;32.25;;;;;23.05;72.07;100949.50;4917386;28;45491;-78
2021/09/09 06:42:50;;;;;;;;;33.00;29.50;;;;;23.09;70.96;100956.28;4904767;29;45732;-77
2021/09/09 06:45:16;;;;;;;;;31.00;28.75;;;;;23.10;70.67;100957.13;4904751;28;45667;-77
2021/09/09 06:47:41;;;;;;;;;28.75;28.00;;;;;23.13;70.32;100951.53;4911625;28;45257;-77
2021/09/09 06:50:08;;;;;;;;;35.25;30.25;;;;;23.19;70.60;100955.53;4923233;28;45335;-78
2021/09/09 06:52:34;;;;;;;;;36.25;32.25;;;;;23.21;70.49;100962.44;4904777;28;45190;-77
2021/09/09 06:54:59;;;;;;;;;29.25;27.00;;;;;23.27;70.09;100969.13;4911969;28;45258;-77
2021/09/09 06:57:25;;;;;;;;;39.25;30.75;;;;;23.25;70.94;100961.22;4923330;28;45410;-77
2021/09/09 06:59:51;;;;;;;;;37.50;31.75;;;;;23.26;70.68;100968.28;4923773;28;45562;-75
2021/09/09 07:02:16;;;;;;;;;31.00;25.25;;;;;23.23;70.06;100967.69;4922063;28;45504;-76
2021/09/09 07:04:41;;;;;;;;;32.25;29.75;;;;;23.21;71.01;100967.81;4915991;28;45471;-76
2021/09/09 07:07:07;;;;;;;;;33.00;30.00;;;;;23.16;71.47;100967.38;4922731;28;45700;-76
2021/09/09 07:09:32;;;;;;;;;31.75;28.50;;;;;23.16;70.54;100968.19;4922255;28;45839;-76
2021/09/09 07:11:57;;;;;;;;;33.00;27.50;;;;;23.13;71.53;100957.75;4909962;28;45457;-76
2021/09/09 07:14:23;;;;;;;;;36.25;29.25;;;;;23.11;72.09;100956.19;4904079;29;46352;-76
2021/09/09 07:16:49;;;;;;;;;30.75;26.50;;;;;23.09;72.03;100958.13;4916275;28;45409;-76
2021/09/09 07:19:15;;;;;;;;;37.25;32.25;;;;;23.13;72.13;100962.25;4921094;28;45304;-76
2021/09/09 07:21:40;;;;;;;;;23.25;21.50;;;;;23.10;70.80;100966.03;4911171;28;45535;-76
2021/09/09 07:24:06;;;;;;;;;23.25;21.25;;;;;23.16;71.09;100962.00;4908557;28;45432;-76
2021/09/09 07:26:31;;;;;;;;;35.50;27.50;;;;;23.19;70.35;100960.91;4919678;28;45161;-76
2021/09/09 07:28:57;;;;;;;;;23.00;20.25;;;;;23.24;69.85;100970.25;4922645;28;45233;-76
2021/09/09 07:31:22;;;;;;;;;22.75;21.75;;;;;23.28;69.67;100968.16;4919863;28;45201;-76
2021/09/09 07:33:48;;;;;;;;;25.75;24.00;;;;;23.32;69.17;100974.09;4916317;28;45720;-76
2021/09/09 07:36:13;;;;;;;;;26.00;23.00;;;;;23.34;69.68;100974.81;4918033;28;45230;-76
2021/09/09 07:38:39;;;;;;;;;24.00;21.00;;;;;23.36;69.08;100975.56;4921148;28;45390;-76
2021/09/09 07:41:04;;;;;;;;;25.00;22.75;;;;;23.40;68.79;100970.78;4918160;28;45239;-76
2021/09/09 07:43:30;;;;;;;;;25.75;22.75;;;;;23.42;68.47;100969.66;4907615;28;45522;-76
2021/09/09 07:45:56;;;;;;;;;25.75;24.00;;;;;23.40;68.30;100970.78;4912885;28;45431;-76
2021/09/09 07:48:22;;;;;;;;;35.75;30.25;;;;;23.43;69.08;100962.47;4913422;28;45949;-76
2021/09/09 07:50:48;;;;;;;;;24.75;21.50;;;;;23.47;68.29;100969.28;4891898;29;47056;-76
2021/09/09 07:53:13;;;;;;;;;32.75;30.00;;;;;23.46;68.50;100967.56;4909765;28;45561;-76
2021/09/09 07:55:38;;;;;;;;;31.50;28.00;;;;;23.51;68.23;100978.78;4904814;28;45419;-76
2021/09/09 07:58:04;;;;;;;;;23.00;22.50;;;;;23.52;67.93;100983.19;4903613;29;45228;-76
2021/09/09 08:00:30;;;;;;;;;25.00;24.00;;;;;23.51;67.82;100978.78;4907500;28;45268;-76
2021/09/09 08:02:55;;;;;;;;;26.25;23.50;;;;;23.51;67.62;100969.91;4921122;28;45295;-76
2021/09/09 08:05:21;;;;;;;;;28.00;25.00;;;;;23.55;67.90;100976.72;4900756;28;45712;-76
2021/09/09 08:07:47;;;;;;;;;23.50;22.75;;;;;23.50;68.01;100969.06;4912083;28;45388;-76
2021/09/09 08:10:15;;;;;;;;;21.75;18.25;;;;;23.54;68.23;100959.75;4922343;28;45244;-76
2021/09/09 08:12:42;;;;;;;;;27.25;24.25;;;;;23.60;68.38;100964.63;4905123;28;47177;-76
2021/09/09 08:15:07;;;;;;;;;25.00;22.00;;;;;23.63;67.86;100968.84;4921261;28;45520;-76
2021/09/09 08:17:33;;;;;;;;;25.50;23.75;;;;;23.63;67.80;100973.38;4903881;28;45443;-76
2021/09/09 08:20:00;;;;;;;;;28.50;25.50;;;;;23.60;67.36;100982.53;4910867;28;45461;-76
2021/09/09 08:22:26;;;;;;;;;25.25;22.00;;;;;23.57;67.61;100972.06;4918920;28;46374;-76
2021/09/09 08:24:53;;;;;;;;;29.75;24.00;;;;;23.56;67.47;100978.38;4912254;28;45847;-76
2021/09/09 08:27:19;;;;;;;;;29.25;23.25;;;;;23.59;67.94;100978.13;4889614;28;45535;-76
2021/09/09 08:29:44;;;;;;;;;22.75;21.75;;;;;23.59;67.80;100973.63;4908875;28;45438;-76
2021/09/09 08:32:10;;;;;;;;;25.50;22.75;;;;;23.65;67.81;100982.13;4910252;28;47023;-76
2021/09/09 08:34:36;;;;;;;;;25.75;24.00;;;;;23.66;67.53;100992.72;4912823;28;45531;-76
2021/09/09 08:37:01;;;;;;;;;25.25;22.50;;;;;23.63;67.19;100984.09;4909487;28;45561;-76
2021/09/09 08:39:26;;;;;;;;;24.75;20.25;;;;;23.62;67.00;100991.28;4905625;28;47137;-74
2021/09/09 08:41:52;;;;;;;;;28.50;24.50;;;;;23.58;66.97;100987.19;4909732;28;45570;-75
2021/09/09 08:44:17;;;;;;;;;27.25;24.25;;;;;23.60;68.71;100996.81;4906731;28;45490;-76
2021/09/09 08:46:43;;;;;;;;;25.25;22.75;;;;;23.63;67.32;100995.66;4904903;28;45879;-76
2021/09/09 08:49:08;;;;;;;;;25.25;22.75;;;;;23.64;66.75;100997.38;4916168;28;45363;-76
2021/09/09 08:51:33;;;;;;;;;24.75;23.25;;;;;23.63;67.60;101000.19;4909700;28;46487;-76
2021/09/09 08:53:59;;;;;;;;;22.50;20.75;;;;;23.60;67.02;101002.16;4913108;28;45463;-76
2021/09/09 08:56:24;;;;;;;;;20.50;18.75;;;;;23.63;66.94;101011.75;4914346;28;45541;-76
2021/09/09 08:58:50;;;;;;;;;21.50;20.50;;;;;23.64;67.08;101004.56;4906235;28;45246;-75
2021/09/09 09:01:18;;;;;;;;;20.00;17.75;;;;;23.62;67.04;100998.47;4905545;28;46402;-75
2021/09/09 09:03:49;;;;;;;;;24.50;18.75;;;;;23.64;68.26;100991.16;4914273;28;45382;-76
2021/09/09 09:06:26;;;;;;;;;18.25;18.25;;;;;23.66;68.37;101005.28;4920196;28;45364;-75
2021/09/09 09:08:54;;;;;;;;;25.00;22.25;;;;;23.62;68.32;101012.75;4920991;28;45439;-76
2021/09/09 09:11:23;;;;;;;;;21.00;18.25;;;;;23.59;67.83;101008.50;4915904;28;46415;-75
2021/09/09 09:13:49;;;;;;;;;24.50;20.75;;;;;23.58;67.19;101003.28;4889422;28;45569;-76
2021/09/09 09:16:14;;;;;;;;;29.75;23.25;;;;;23.55;68.48;101004.38;4907341;28;45490;-76
2021/09/09 09:18:43;;;;;;;;;19.75;17.50;;;;;23.56;67.42;101002.53;4905879;28;46344;-76
2021/09/09 09:21:09;;;;;;;;;23.00;20.50;;;;;23.58;67.31;101012.16;4907076;28;45513;-76
2021/09/09 09:23:35;;;;;;;;;16.00;16.00;;;;;23.60;67.90;101012.91;4891102;28;45571;-75
2021/09/09 09:26:03;;;;;;;;;22.50;19.25;;;;;23.59;67.80;101005.81;4889656;28;46645;-76
2021/09/09 09:28:44;;;;;;;;;22.25;19.50;;;;;23.60;68.18;101006.69;4907443;28;45726;-76
2021/09/09 09:31:16;;;;;;;;;17.25;17.25;;;;;23.62;67.47;101011.91;4906325;28;46078;-75
2021/09/09 09:33:56;;;;;;;;;17.25;16.75;;;;;23.59;67.37;101005.81;4906799;28;46706;-76
2021/09/09 09:36:24;;;;;;;;;19.25;17.50;;;;;23.62;67.19;101006.53;4908439;28;45655;-76
2021/09/09 09:38:54;;;;;;;;;18.00;16.25;;;;;23.62;67.22;101006.53;4893369;28;46039;-75
2021/09/09 09:41:22;;;;;;;;;21.25;19.25;;;;;23.65;67.71;101017.88;4909530;28;47086;-76
2021/09/09 09:44:00;;;;;;;;;25.00;23.50;;;;;23.70;67.83;101014.78;4910206;28;45715;-76
2021/09/09 09:46:31;;;;;;;;;19.75;18.75;;;;;23.68;67.63;101009.53;4909179;28;45673;-76
2021/09/09 09:49:27;;;;;;;;;19.75;18.00;;;;;23.75;67.06;101025.13;4914190;28;45511;-75
2021/09/09 09:51:55;;;;;;;;;23.75;19.25;;;;;23.74;67.00;101008.19;4909582;28;45439;-76
2021/09/09 09:54:24;;;;;;;;;20.00;19.50;;;;;23.79;67.50;101011.31;4912447;28;45660;-75
2021/09/09 09:56:50;;;;;;;;;17.25;16.00;;;;;23.83;66.55;101006.53;4913984;28;45698;-76
2021/09/09 09:59:16;;;;;;;;;17.75;16.75;;;;;23.86;66.52;101013.47;4909702;28;47021;-76
2021/09/09 10:01:42;;;;;;;;;23.00;19.00;;;;;23.87;66.56;101012.50;4916883;28;45387;-76
2021/09/09 10:04:15;;;;;;;;;22.50;21.50;;;;;23.88;66.59;101004.28;4922230;28;45348;-75
2021/09/09 10:06:43;;;;;;;;;20.25;17.00;;;;;23.90;66.40;101009.56;4907770;28;45472;-76
2021/09/09 10:09:08;;;;;;;;;19.25;15.50;;;;;23.92;66.67;101011.13;4906081;28;45616;-76
2021/09/09 10:11:34;;;;;;;;;18.75;18.50;;;;;23.98;66.05;101014.25;4917850;28;45584;-76
2021/09/09 10:14:02;;;;;;;;;24.25;22.50;;;;;23.94;67.35;101009.16;4899124;29;45765;-75
2021/09/09 10:16:31;;;;;;;;;21.75;18.75;;;;;23.94;66.49;101002.94;4905244;29;45226;-76
2021/09/09 10:18:57;;;;;;;;;19.50;18.25;;;;;24.02;66.49;101008.50;4909989;28;45419;-76
2021/09/09 10:22:02;;;;;;;;;21.00;18.75;;;;;24.10;66.00;101009.66;4920237;28;45506;-76
2021/09/09 10:24:31;;;;;;;;;18.50;16.75;;;;;24.10;66.02;101002.44;4911774;28;45530;-76
2021/09/09 10:27:27;;;;;;;;;22.00;17.25;;;;;24.08;65.87;101000.84;4922823;28;45281;-75
2021/09/09 10:29:54;;;;;;;;;16.75;15.50;;;;;24.04;66.00;101003.84;4910272;28;45426;-76
2021/09/09 10:32:31;;;;;;;;;18.00;17.25;;;;;23.99;66.06;101006.06;4922818;28;45318;-76
2021/09/09 10:35:17;;;;;;;;;19.00;16.25;;;;;23.95;66.03;101001.97;4916682;28;45542;-76
2021/09/09 10:37:44;;;;;;;;;20.25;19.50;;;;;23.94;65.74;101000.25;4908107;28;45440;-75
2021/09/09 10:40:33;;;;;;;;;16.50;15.00;;;;;23.96;65.73;101002.78;4910950;28;45340;-75
2021/09/09 10:43:02;;;;;;;;;19.50;19.00;;;;;23.96;66.02;101003.63;4896343;28;47064;-75
2021/09/09 10:45:46;;;;;;;;;17.25;17.25;;;;;23.99;65.79;101003.38;4915517;28;45547;-76
2021/09/09 10:48:14;;;;;;;;;18.25;17.25;;;;;24.06;65.95;101001.00;4922572;28;45283;-76
2021/09/09 10:50:40;;;;;;;;;23.50;17.75;;;;;24.13;66.12;101001.31;4916389;28;45561;-76
2021/09/09 10:53:08;;;;;;;;;17.75;16.50;;;;;24.22;66.38;101000.53;4922330;28;45538;-76
2021/09/09 10:55:39;;;;;;;;;18.25;17.00;;;;;24.32;65.48;101005.13;4918280;28;45338;-76
2021/09/09 10:58:19;;;;;;;;;17.75;15.25;;;;;24.40;65.42;101002.59;4921544;28;45514;-76
2021/09/09 11:01:05;;;;;;;;;17.75;16.75;;;;;24.45;65.18;100994.97;4904356;29;45279;-76
2021/09/09 11:03:48;;;;;;;;;16.50;15.25;;;;;24.50;65.58;101002.63;4913567;28;48164;-76
2021/09/09 11:06:15;;;;;;;;;15.00;14.50;;;;;24.54;64.71;100992.47;4921540;28;45252;-75
2021/09/09 11:08:44;;;;;;;;;16.00;15.00;;;;;24.57;64.62;100986.81;4915149;28;45511;-76